createdAt,value
2018-05-18T00:01:30.577Z,96317
2018-05-18T00:03:59.450Z,96310
2018-05-18T00:06:28.323Z,96312
2018-05-18T00:08:57.233Z,96308
2018-05-18T00:11:26.114Z,96306
2018-05-18T00:13:55.043Z,96306
2018-05-18T00:16:23.907Z,96306
2018-05-18T00:18:52.797Z,96301
2018-05-18T00:21:21.683Z,96304
2018-05-18T00:23:50.551Z,96303
2018-05-18T00:26:19.436Z,96313
2018-05-18T00:28:48.325Z,96317
2018-05-18T00:31:17.188Z,96304
2018-05-18T00:33:46.063Z,96301
2018-05-18T00:36:14.947Z,96302
2018-05-18T00:38:43.835Z,96302
2018-05-18T00:41:12.726Z,96296
2018-05-18T00:43:41.589Z,96291
2018-05-18T00:46:10.487Z,96288
2018-05-18T00:48:40.111Z,96288
2018-05-18T00:51:08.978Z,96274
2018-05-18T00:53:37.868Z,96266
2018-05-18T00:56:06.731Z,96279
2018-05-18T00:58:35.604Z,96282
2018-05-18T01:01:04.515Z,96284
2018-05-18T01:03:33.374Z,96278
2018-05-18T01:06:02.283Z,96277
2018-05-18T01:08:31.152Z,96281
2018-05-18T01:11:00.025Z,96280
2018-05-18T01:13:28.919Z,96284
2018-05-18T01:15:58.655Z,96282
2018-05-18T01:18:27.475Z,96283
2018-05-18T01:20:56.343Z,96285
2018-05-18T01:23:25.223Z,96286
2018-05-18T01:25:54.179Z,96279
2018-05-18T01:28:23.047Z,96280
2018-05-18T01:30:51.913Z,96280
2018-05-18T01:33:20.844Z,96285
2018-05-18T01:35:50.476Z,96287
2018-05-18T01:38:19.360Z,96289
2018-05-18T01:40:48.244Z,96294
2018-05-18T01:43:17.137Z,96289
2018-05-18T01:45:46.022Z,96280
2018-05-18T01:48:15.658Z,96285
2018-05-18T01:50:44.567Z,96292
2018-05-18T01:53:13.441Z,96288
2018-05-18T01:55:42.303Z,96290
2018-05-18T01:58:11.199Z,96295
2018-05-18T02:00:40.084Z,96288
2018-05-18T02:03:08.951Z,96288
2018-05-18T02:05:37.845Z,96292
2018-05-18T02:08:07.479Z,96289
2018-05-18T02:10:36.343Z,96278
2018-05-18T02:13:05.242Z,96278
2018-05-18T02:15:34.111Z,96282
2018-05-18T02:18:02.975Z,96291
2018-05-18T02:20:31.871Z,96289
2018-05-18T02:23:00.736Z,96291
2018-05-18T02:25:29.600Z,96281
2018-05-18T02:27:58.512Z,96277
2018-05-18T02:30:27.377Z,96286
2018-05-18T02:32:56.268Z,96284
2018-05-18T02:35:25.142Z,96287
2018-05-18T02:37:54.049Z,96286
2018-05-18T02:40:22.919Z,96279
2018-05-18T02:42:51.784Z,96279
2018-05-18T02:45:21.434Z,96277
2018-05-18T02:47:50.297Z,96276
2018-05-18T02:50:19.231Z,96275
2018-05-18T02:52:48.855Z,96280
2018-05-18T02:55:17.743Z,96277
2018-05-18T02:57:46.636Z,96278
2018-05-18T03:00:15.532Z,96279
2018-05-18T03:02:45.203Z,96280
2018-05-18T03:05:14.071Z,96281
2018-05-18T03:07:42.936Z,96281
2018-05-18T03:10:11.833Z,96284
2018-05-18T03:12:40.697Z,96290
2018-05-18T03:15:09.560Z,96294
2018-05-18T03:17:38.455Z,96296
2018-05-18T03:20:07.323Z,96298
2018-05-18T03:22:36.225Z,96285
2018-05-18T03:25:05.878Z,96290
2018-05-18T03:27:34.775Z,96298
2018-05-18T03:30:03.693Z,96292
2018-05-18T03:32:32.603Z,96293
2018-05-18T03:35:01.464Z,96298
2018-05-18T03:37:30.328Z,96296
2018-05-18T03:39:59.214Z,96299
2018-05-18T03:42:28.079Z,96304
2018-05-18T03:44:56.972Z,96314
2018-05-18T03:47:25.844Z,96304
2018-05-18T03:49:54.747Z,96314
2018-05-18T03:52:23.638Z,96308
2018-05-18T03:54:53.272Z,96309
2018-05-18T03:57:22.138Z,96315
2018-05-18T03:59:51.047Z,96321
2018-05-18T04:02:37.509Z,96320
2018-05-18T04:05:23.894Z,96324
2018-05-18T04:08:10.451Z,96325
2018-05-18T04:10:39.319Z,96319
2018-05-18T04:13:08.188Z,96315
2018-05-18T04:15:37.859Z,96327
2018-05-18T04:18:06.728Z,96337
2018-05-18T04:20:35.604Z,96327
2018-05-18T04:23:04.497Z,96335
2018-05-18T04:25:34.136Z,96335
2018-05-18T04:28:03.028Z,96335
2018-05-18T04:30:32.028Z,96330
2018-05-18T04:33:00.875Z,96334
2018-05-18T04:35:29.746Z,96326
2018-05-18T04:37:58.616Z,96334
2018-05-18T04:40:27.499Z,96335
2018-05-18T04:42:56.459Z,96334
2018-05-18T04:45:26.398Z,96331
2018-05-18T04:47:55.283Z,96338
2018-05-18T04:50:24.146Z,96339
2018-05-18T04:52:53.071Z,96341
2018-05-18T04:55:21.992Z,96350
2018-05-18T04:57:51.651Z,96352
2018-05-18T05:00:20.543Z,96358
2018-05-18T05:02:49.418Z,96350
2018-05-18T05:05:18.312Z,96365
2018-05-18T05:07:47.182Z,96365
2018-05-18T05:10:16.990Z,96364
2018-05-18T05:12:45.890Z,96373
2018-05-18T05:15:15.526Z,96372
2018-05-18T05:17:44.403Z,96360
2018-05-18T05:20:13.296Z,96366
2018-05-18T05:22:42.220Z,96372
2018-05-18T05:25:11.095Z,96362
2018-05-18T05:27:39.965Z,96377
2018-05-18T05:30:08.863Z,96366
2018-05-18T05:32:37.732Z,96372
2018-05-18T05:35:06.631Z,96379
2018-05-18T05:37:35.509Z,96378
2018-05-18T05:40:04.419Z,96373
2018-05-18T05:42:34.080Z,96360
2018-05-18T05:45:02.997Z,96381
2018-05-18T05:47:32.639Z,96383
2018-05-18T05:50:01.519Z,96390
2018-05-18T05:52:30.433Z,96397
2018-05-18T05:55:00.070Z,96407
2018-05-18T05:57:28.946Z,96413
2018-05-18T05:59:57.839Z,96420
2018-05-18T06:02:26.721Z,96407
2018-05-18T06:04:55.611Z,96408
2018-05-18T06:07:24.504Z,96407
2018-05-18T06:09:53.409Z,96398
2018-05-18T06:12:22.352Z,96401
2018-05-18T06:14:51.260Z,96403
2018-05-18T06:17:20.160Z,96406
2018-05-18T06:19:49.067Z,96402
2018-05-18T06:22:17.937Z,96406
2018-05-18T06:24:46.811Z,96411
2018-05-18T06:27:15.703Z,96408
2018-05-18T06:29:45.344Z,96410
2018-05-18T06:32:14.220Z,96409
2018-05-18T06:34:43.211Z,96409
2018-05-18T06:37:12.023Z,96405
2018-05-18T06:39:42.350Z,96411
2018-05-18T06:42:11.243Z,96396
2018-05-18T06:44:40.121Z,96409
2018-05-18T06:47:09.020Z,96406
2018-05-18T06:49:37.915Z,96423
2018-05-18T06:52:07.548Z,96420
2018-05-18T06:54:36.445Z,96417
2018-05-18T06:57:05.315Z,96417
2018-05-18T06:59:34.209Z,96424
2018-05-18T07:02:03.084Z,96419
2018-05-18T07:04:31.963Z,96432
2018-05-18T07:07:00.872Z,96425
2018-05-18T07:09:29.756Z,96425
2018-05-18T07:11:58.623Z,96432
2018-05-18T07:14:28.325Z,96428
2018-05-18T07:16:57.197Z,96429
2018-05-18T07:19:26.068Z,96436
2018-05-18T07:21:54.994Z,96438
2018-05-18T07:24:23.883Z,96440
2018-05-18T07:26:52.752Z,96440
2018-05-18T07:29:21.656Z,96440
2018-05-18T07:31:51.306Z,96433
2018-05-18T07:34:20.219Z,96436
2018-05-18T07:36:49.120Z,96440
2018-05-18T07:39:18.024Z,96444
2018-05-18T07:41:46.901Z,96446
2018-05-18T07:44:15.823Z,96443
2018-05-18T07:46:44.708Z,96440
2018-05-18T07:49:13.580Z,96451
2018-05-18T07:51:42.492Z,96441
2018-05-18T07:54:11.377Z,96443
2018-05-18T07:56:40.258Z,96446
2018-05-18T07:59:09.177Z,96440
2018-05-18T08:01:38.819Z,96439
2018-05-18T08:04:07.706Z,96440
2018-05-18T08:06:36.616Z,96454
2018-05-18T08:09:06.316Z,96455
2018-05-18T08:11:35.984Z,96452
2018-05-18T08:14:04.903Z,96455
2018-05-18T08:16:33.839Z,96460
2018-05-18T08:19:02.711Z,96458
2018-05-18T08:21:31.598Z,96460
2018-05-18T08:24:01.277Z,96457
2018-05-18T08:26:31.338Z,96454
2018-05-18T08:29:17.818Z,96457
2018-05-18T08:31:46.698Z,96455
2018-05-18T08:34:15.596Z,96451
2018-05-18T08:36:44.472Z,96452
2018-05-18T08:39:13.491Z,96455
2018-05-18T08:41:42.339Z,96452
2018-05-18T08:44:11.260Z,96463
2018-05-18T08:46:40.138Z,96463
2018-05-18T08:49:09.045Z,96465
2018-05-18T08:51:37.944Z,96466
2018-05-18T08:54:06.845Z,96473
2018-05-18T08:56:35.724Z,96472
2018-05-18T08:59:04.591Z,96472
2018-05-18T09:01:34.271Z,96476
2018-05-18T09:04:03.943Z,96489
2018-05-18T09:06:33.727Z,96479
2018-05-18T09:09:02.635Z,96480
2018-05-18T09:11:31.541Z,96487
2018-05-18T11:25:16.393Z,96454
2018-05-18T11:27:46.660Z,96458
2018-05-18T11:30:15.575Z,96456
2018-05-18T11:32:45.217Z,96450
2018-05-18T11:35:14.086Z,96454
2018-05-18T11:37:43.016Z,96455
2018-05-18T11:40:11.887Z,96449
2018-05-18T11:42:40.767Z,96450
2018-05-18T11:45:10.443Z,96453
2018-05-18T11:47:39.319Z,96451
2018-05-18T11:50:08.192Z,96441
2018-05-18T11:52:37.085Z,96440
2018-05-18T11:55:06.744Z,96440
2018-05-18T11:57:35.645Z,96438
2018-05-18T12:00:04.616Z,96431
2018-05-18T12:02:33.525Z,96432
2018-05-18T12:05:02.416Z,96434
2018-05-18T12:07:31.290Z,96430
2018-05-18T12:10:00.187Z,96432
2018-05-18T12:12:29.064Z,96418
2018-05-18T12:14:57.936Z,96423
2018-05-18T12:17:26.847Z,96420
2018-05-18T12:19:56.490Z,96422
2018-05-18T12:22:25.360Z,96422
2018-05-18T12:24:54.250Z,96423
2018-05-18T12:27:23.118Z,96426
2018-05-18T12:29:51.992Z,96424
2018-05-18T12:32:20.908Z,96428
2018-05-18T12:34:49.783Z,96433
2018-05-18T12:37:18.655Z,96428
2018-05-18T12:39:47.567Z,96434
2018-05-18T12:42:16.447Z,96423
2018-05-18T12:44:45.436Z,96428
2018-05-18T12:47:14.231Z,96426
2018-05-18T12:49:43.104Z,96417
2018-05-18T12:52:12.014Z,96420
2018-05-18T12:54:41.703Z,96426
2018-05-18T12:57:10.576Z,96419
2018-05-18T12:59:40.241Z,96407
2018-05-18T13:02:09.140Z,96409
2018-05-18T13:04:38.011Z,96409
2018-05-18T13:07:07.692Z,96403
2018-05-18T13:09:36.565Z,96408
2018-05-18T13:12:05.463Z,96397
2018-05-18T13:14:35.128Z,96395
2018-05-18T13:17:04.064Z,96396
2018-05-18T13:19:32.955Z,96395
2018-05-18T13:22:01.852Z,96390
2018-05-18T13:24:30.746Z,96384
2018-05-18T13:26:59.651Z,96386
2018-05-18T13:29:28.528Z,96389
2018-05-18T13:31:57.406Z,96386
2018-05-18T13:34:26.336Z,96391
2018-05-18T13:36:55.209Z,96383
2018-05-18T13:39:25.854Z,96384
2018-05-18T13:41:55.520Z,96389
2018-05-18T13:44:24.422Z,96382
2018-05-18T13:46:54.114Z,96381
2018-05-18T13:49:23.751Z,96374
2018-05-18T13:51:52.731Z,96372
2018-05-18T13:54:21.551Z,96379
2018-05-18T13:56:51.195Z,96372
2018-05-18T13:59:20.104Z,96368
2018-05-18T14:01:48.979Z,96366
2018-05-18T14:04:17.871Z,96357
2018-05-18T14:06:47.536Z,96354
2018-05-18T14:09:16.419Z,96355
2018-05-18T14:11:45.291Z,96355
2018-05-18T14:14:14.199Z,96358
2018-05-18T14:16:43.832Z,96360
2018-05-18T14:19:12.722Z,96360
2018-05-18T14:21:41.615Z,96361
2018-05-18T14:24:10.523Z,96353
2018-05-18T14:26:39.459Z,96362
2018-05-18T14:29:08.334Z,96359
2018-05-18T14:31:37.248Z,96352
2018-05-18T14:34:06.130Z,96352
2018-05-18T14:36:35.004Z,96357
2018-05-18T14:39:04.016Z,96346
2018-05-18T14:41:32.897Z,96340
2018-05-18T14:44:01.873Z,96348
2018-05-18T14:46:30.945Z,96352
2018-05-18T14:48:59.815Z,96352
2018-05-18T14:51:28.722Z,96365
2018-05-18T14:53:58.388Z,96360
2018-05-18T14:56:27.256Z,96360
2018-05-18T14:58:56.171Z,96356
2018-05-18T15:01:25.048Z,96361
2018-05-18T15:03:53.938Z,96365
2018-05-18T15:06:23.616Z,96372
2018-05-18T15:08:52.491Z,96373
2018-05-18T15:11:22.135Z,96366
2018-05-18T15:13:51.031Z,96364
2018-05-18T15:16:19.977Z,96360
2018-05-18T15:18:48.825Z,96353
2018-05-18T15:21:18.492Z,96361
2018-05-18T15:23:47.409Z,96357
2018-05-18T15:26:16.285Z,96362
2018-05-18T15:28:45.234Z,96365
2018-05-18T15:31:14.074Z,96361
2018-05-18T15:33:42.996Z,96367
2018-05-18T15:36:12.636Z,96370
2018-05-18T15:38:41.512Z,96375
2018-05-18T15:41:10.418Z,96376
2018-05-18T15:43:40.067Z,96382
2018-05-18T15:46:09.037Z,96381
2018-05-18T15:48:37.919Z,96378
2018-05-18T15:51:06.803Z,96392
2018-05-18T15:53:35.723Z,96397
2018-05-18T15:56:05.372Z,96394
2018-05-18T15:58:34.256Z,96397
2018-05-18T16:01:03.176Z,96402
2018-05-18T16:03:32.047Z,96404
2018-05-18T16:06:01.685Z,96402
2018-05-18T16:08:30.592Z,96395
2018-05-18T16:10:59.540Z,96394
2018-05-18T16:13:28.453Z,96395
2018-05-18T16:15:58.103Z,96406
2018-05-18T16:18:27.017Z,96396
2018-05-18T16:20:55.941Z,96402
2018-05-18T16:23:24.800Z,96405
2018-05-18T16:25:53.701Z,96406
2018-05-18T16:28:22.612Z,96403
2018-05-18T16:30:51.485Z,96410
2018-05-18T16:33:20.396Z,96416
2018-05-18T16:35:49.293Z,96411
2018-05-18T16:38:18.171Z,96412
2018-05-18T16:40:47.044Z,96412
2018-05-18T16:43:15.939Z,96418
2018-05-18T16:45:44.836Z,96401
2018-05-18T16:48:14.499Z,96399
2018-05-18T16:50:43.370Z,96398
2018-05-18T16:53:12.278Z,96399
2018-05-18T16:55:41.150Z,96404
2018-05-18T16:58:10.837Z,96401
2018-05-18T17:00:39.746Z,96402
2018-05-18T17:03:08.648Z,96403
2018-05-18T17:05:37.518Z,96402
2018-05-18T17:08:06.412Z,96407
2018-05-18T17:10:35.282Z,96404
2018-05-18T17:13:04.222Z,96401
2018-05-18T17:15:33.112Z,96404
2018-05-18T17:18:01.989Z,96409
2018-05-18T17:20:30.907Z,96403
2018-05-18T17:22:59.789Z,96406
2018-05-18T17:25:28.679Z,96413
2018-05-18T17:27:58.343Z,96405
2018-05-18T17:30:27.226Z,96405
2018-05-18T17:32:56.167Z,96405
2018-05-18T17:35:25.059Z,96414
2018-05-18T17:37:54.845Z,96410
2018-05-18T17:40:23.753Z,96416
2018-05-18T17:42:52.631Z,96398
2018-05-18T17:45:21.547Z,96395
2018-05-18T17:47:50.432Z,96407
2018-05-18T17:50:19.351Z,96408
2018-05-18T17:52:48.232Z,96414
2018-05-18T17:55:17.120Z,96414
2018-05-18T17:57:46.783Z,96415
2018-05-18T18:00:15.680Z,96421
2018-05-18T18:02:45.364Z,96418
2018-05-18T18:05:14.273Z,96415
2018-05-18T18:07:43.152Z,96426
2018-05-18T18:10:12.075Z,96424
2018-05-18T18:12:40.972Z,96424
2018-05-18T18:15:10.615Z,96431
2018-05-18T18:17:39.511Z,96436
2018-05-18T18:20:08.408Z,96440
2018-05-18T18:22:37.291Z,96443
2018-05-18T18:25:06.971Z,96447
2018-05-18T18:27:35.852Z,96460
2018-05-18T18:30:04.750Z,96458
2018-05-18T18:32:34.422Z,96461
2018-05-18T18:35:04.080Z,96460
2018-05-18T18:37:32.962Z,96464
2018-05-18T18:40:01.874Z,96460
2018-05-18T18:42:31.524Z,96463
2018-05-18T18:45:00.396Z,96462
2018-05-18T18:47:29.292Z,96469
2018-05-18T18:49:58.195Z,96466
2018-05-18T18:52:27.836Z,96474
2018-05-18T18:54:56.760Z,96476
2018-05-18T18:57:26.405Z,96474
2018-05-18T18:59:55.284Z,96475
2018-05-18T19:02:24.175Z,96476
2018-05-18T19:04:53.063Z,96468
2018-05-18T19:07:21.932Z,96477
2018-05-18T19:09:50.830Z,96475
2018-05-18T19:12:20.484Z,96485
2018-05-18T19:14:49.368Z,96478
2018-05-18T19:17:18.267Z,96498
2018-05-18T19:19:47.919Z,96500
2018-05-18T19:22:16.826Z,96499
2018-05-18T19:24:45.710Z,96490
2018-05-18T19:27:15.367Z,96493
2018-05-18T19:29:44.368Z,96499
2018-05-18T19:32:13.183Z,96499
2018-05-18T19:34:42.126Z,96504
2018-05-18T19:37:11.785Z,96504
2018-05-18T19:39:40.692Z,96500
2018-05-18T19:42:10.335Z,96500
2018-05-18T19:44:39.247Z,96503
2018-05-18T19:47:08.123Z,96512
2018-05-18T19:49:36.991Z,96512
2018-05-18T19:52:05.907Z,96500
2018-05-18T19:54:34.783Z,96509
2018-05-18T19:57:03.667Z,96506
2018-05-18T19:59:32.555Z,96518
2018-05-18T20:02:01.436Z,96513
2018-05-18T20:04:30.412Z,96514
2018-05-18T20:07:00.040Z,96522
2018-05-18T20:09:28.926Z,96526
2018-05-18T20:11:58.573Z,96519
2018-05-18T20:14:27.468Z,96529
2018-05-18T20:16:56.368Z,96529
2018-05-18T20:19:26.052Z,96529
2018-05-18T20:21:54.924Z,96519
2018-05-18T20:24:23.849Z,96523
2018-05-18T20:26:52.740Z,96521
2018-05-18T20:29:21.628Z,96524
2018-05-18T20:31:50.540Z,96520
2018-05-18T20:34:20.184Z,96511
2018-05-18T20:36:49.100Z,96511
2018-05-18T20:39:17.979Z,96514
2018-05-18T20:41:47.639Z,96508
2018-05-18T20:44:16.520Z,96516
2018-05-18T20:46:45.416Z,96521
2018-05-18T20:49:14.291Z,96519
2018-05-18T20:51:43.255Z,96515
2018-05-18T20:54:12.855Z,96513
2018-05-18T20:56:41.732Z,96517
2018-05-18T20:59:10.648Z,96496
2018-05-18T21:01:39.532Z,96496
2018-05-18T21:04:08.460Z,96497
2018-05-18T21:06:37.402Z,96503
2018-05-18T21:09:06.287Z,96497
2018-05-18T21:11:35.164Z,96503
2018-05-18T21:14:04.064Z,96503
2018-05-18T21:16:33.712Z,96504
2018-05-18T21:19:02.621Z,96505
2018-05-18T21:21:31.547Z,96502
2018-05-18T21:24:00.437Z,96507
2018-05-18T21:26:29.320Z,96507
2018-05-18T21:28:58.259Z,96501
2018-05-18T21:31:27.139Z,96512
2018-05-18T21:33:56.022Z,96499
2018-05-18T21:36:24.936Z,96503
2018-05-18T21:38:53.814Z,96511
2018-05-18T21:41:22.752Z,96508
2018-05-18T21:43:51.661Z,96520
2018-05-18T21:46:20.552Z,96513
2018-05-18T21:48:49.467Z,96510
2018-05-18T21:51:18.351Z,96516
2018-05-18T21:53:47.248Z,96521
2018-05-18T21:56:16.152Z,96523
2018-05-18T21:58:45.032Z,96523
2018-05-18T22:01:14.706Z,96518
2018-05-18T22:03:43.620Z,96513
2018-05-18T22:06:12.500Z,96519
2018-05-18T22:08:41.411Z,96510
2018-05-18T22:11:10.293Z,96516
2018-05-18T22:13:39.176Z,96520
2018-05-18T22:16:08.090Z,96513
2018-05-18T22:18:36.995Z,96513
2018-05-18T22:21:05.869Z,96513
2018-05-18T22:23:34.744Z,96515
2018-05-18T22:26:03.668Z,96517
2018-05-18T22:28:32.549Z,96514
2018-05-18T22:31:02.192Z,96513
2018-05-18T22:33:31.111Z,96512
2018-05-18T22:35:59.999Z,96516
2018-05-18T22:38:28.917Z,96515
2018-05-18T22:40:57.839Z,96510
2018-05-18T22:43:26.719Z,96502
2018-05-18T22:45:56.371Z,96512
2018-05-18T22:48:25.263Z,96500
2018-05-18T22:50:54.192Z,96499
2018-05-18T22:53:23.088Z,96505
2018-05-18T22:55:51.975Z,96496
2018-05-18T22:58:20.902Z,96500
2018-05-18T23:00:50.540Z,96495
2018-05-18T23:03:19.443Z,96493
2018-05-18T23:05:48.347Z,96496
2018-05-18T23:08:17.240Z,96501
2018-05-18T23:10:46.168Z,96488
2018-05-18T23:13:15.824Z,96490
2018-05-18T23:15:44.701Z,96479
2018-05-18T23:18:13.606Z,96486
2018-05-18T23:20:42.511Z,96484
2018-05-18T23:23:12.149Z,96479
2018-05-18T23:25:41.020Z,96475
2018-05-18T23:28:09.935Z,96465
2018-05-18T23:30:39.603Z,96465
2018-05-18T23:33:08.476Z,96471
2018-05-18T23:35:37.376Z,96463
2018-05-18T23:38:06.256Z,96467
2018-05-18T23:40:35.949Z,96464
2018-05-18T23:43:05.602Z,96463
2018-05-18T23:45:34.493Z,96461
2018-05-18T23:48:03.413Z,96450
2018-05-18T23:50:32.289Z,96448
2018-05-18T23:53:01.194Z,96452
2018-05-18T23:55:30.099Z,96448
2018-05-18T23:57:58.989Z,96446
